createdAt,value
2019-03-23T00:02:01.729Z,10.20
2019-03-23T00:04:52.943Z,10.93
2019-03-23T00:07:54.856Z,10.52
2019-03-23T00:10:48.067Z,10.24
2019-03-23T00:13:39.301Z,9.76
2019-03-23T00:16:42.011Z,9.74
2019-03-23T00:19:27.592Z,9.96
2019-03-23T00:22:12.492Z,10.11
2019-03-23T00:27:29.945Z,10.25
2019-03-23T00:30:21.170Z,10.07
2019-03-23T00:33:31.132Z,9.60
2019-03-23T00:36:22.332Z,9.25
2019-03-23T00:39:13.495Z,9.43
2019-03-23T00:42:04.701Z,9.84
2019-03-23T00:45:07.367Z,10.19
2019-03-23T00:47:52.590Z,9.92
2019-03-23T00:50:26.773Z,9.81
2019-03-23T00:53:17.971Z,10.76
2019-03-23T00:56:09.201Z,10.95
2019-03-23T01:01:44.968Z,10.20
2019-03-23T01:04:36.241Z,10.26
2019-03-23T01:13:15.015Z,9.91
2019-03-23T01:16:06.253Z,9.55
2019-03-23T01:24:26.858Z,10.84
2019-03-23T01:27:30.647Z,9.88
2019-03-23T01:30:02.828Z,9.38
2019-03-23T01:35:49.758Z,8.64
2019-03-23T01:38:24.014Z,9.20
2019-03-23T01:41:26.043Z,10.13
2019-03-23T01:44:10.565Z,10.74
2019-03-23T01:46:56.449Z,10.94
2019-03-23T01:49:41.168Z,11.13
2019-03-23T01:52:14.966Z,11.64
2019-03-23T01:58:23.187Z,11.97
2019-03-23T02:00:56.100Z,11.62
2019-03-23T02:06:50.800Z,10.57
2019-03-23T02:18:18.002Z,10.27
2019-03-23T02:21:09.117Z,9.93
2019-03-23T02:24:00.299Z,10.00
2019-03-23T02:27:10.310Z,10.82
2019-03-23T02:30:20.314Z,11.21
2019-03-23T02:33:23.123Z,11.57
2019-03-23T02:39:01.475Z,11.01
2019-03-23T02:42:11.529Z,10.18
2019-03-23T02:45:14.039Z,10.21
2019-03-23T02:47:48.424Z,9.85
2019-03-23T02:50:58.423Z,9.55
2019-03-23T02:54:00.180Z,9.08
2019-03-23T03:02:13.757Z,8.37
2019-03-23T03:10:39.196Z,7.40
2019-03-23T03:16:14.581Z,7.61
2019-03-23T03:19:05.720Z,7.96
2019-03-23T03:21:56.887Z,7.64
2019-03-23T03:24:58.809Z,7.71
2019-03-23T03:30:28.345Z,8.36
2019-03-23T03:33:21.911Z,8.30
2019-03-23T03:36:24.278Z,8.11
2019-03-23T03:44:35.075Z,8.64
2019-03-23T03:50:04.509Z,7.10
2019-03-23T03:52:38.491Z,6.94
2019-03-23T03:55:48.462Z,6.97
2019-03-23T04:07:04.198Z,9.05
2019-03-23T04:09:40.435Z,9.59
2019-03-23T04:12:32.762Z,8.33
2019-03-23T04:15:35.495Z,8.31
2019-03-23T04:18:27.791Z,8.43
2019-03-23T04:24:13.622Z,9.52
2019-03-23T04:29:40.591Z,9.18
2019-03-23T04:32:25.239Z,8.40
2019-03-23T04:40:45.519Z,8.40
2019-03-23T04:46:44.006Z,8.07
2019-03-23T05:01:16.570Z,7.09
2019-03-23T05:04:09.558Z,7.22
2019-03-23T05:12:41.367Z,7.67
2019-03-23T05:15:26.330Z,7.82
2019-03-23T05:18:10.580Z,7.58
2019-03-23T05:21:05.348Z,7.58
2019-03-23T05:23:56.553Z,8.13
2019-03-23T05:32:51.776Z,7.78
2019-03-23T05:35:34.815Z,7.54
2019-03-23T05:40:55.114Z,7.86
2019-03-23T05:46:43.650Z,7.91
2019-03-23T05:49:18.039Z,7.93
2019-03-23T05:54:54.172Z,8.21
2019-03-23T06:00:50.069Z,8.13
2019-03-23T06:04:00.080Z,8.35
2019-03-23T06:07:02.360Z,8.63
2019-03-23T06:09:46.658Z,8.56
2019-03-23T06:12:21.159Z,8.27
2019-03-23T06:18:07.886Z,9.24
2019-03-23T06:20:42.274Z,10.03
2019-03-23T06:23:52.290Z,10.46
2019-03-23T06:35:10.828Z,10.37
2019-03-23T06:37:56.228Z,10.85
2019-03-23T06:40:41.015Z,11.14
2019-03-23T06:43:15.308Z,11.23
2019-03-23T06:46:06.466Z,11.61
2019-03-23T06:51:42.464Z,11.12
2019-03-23T06:54:52.452Z,10.61
2019-03-23T06:57:43.674Z,10.72
2019-03-23T07:00:46.386Z,10.95
2019-03-23T07:03:37.179Z,11.79
2019-03-23T07:12:08.377Z,13.01
2019-03-23T07:15:02.875Z,13.29
2019-03-23T07:18:12.884Z,13.38
2019-03-23T07:21:04.110Z,12.80
2019-03-23T07:24:14.108Z,11.69
2019-03-23T07:30:01.512Z,12.07
2019-03-23T07:32:44.721Z,12.76
2019-03-23T07:35:47.691Z,13.13
2019-03-23T07:38:21.561Z,13.69
2019-03-23T07:41:31.557Z,14.22
2019-03-23T07:47:16.941Z,13.50
2019-03-23T07:52:34.784Z,12.51
2019-03-23T07:55:25.370Z,12.99
2019-03-23T07:58:27.102Z,13.41
2019-03-23T08:00:59.882Z,12.83
2019-03-23T08:06:51.813Z,13.28
2019-03-23T08:12:08.865Z,13.90
2019-03-23T08:18:04.642Z,14.50
2019-03-23T08:21:14.643Z,15.17
2019-03-23T08:24:06.105Z,15.54
2019-03-23T08:35:13.593Z,14.84
2019-03-23T08:38:04.787Z,15.06
2019-03-23T08:40:56.026Z,14.97
2019-03-23T08:43:47.208Z,15.39
2019-03-23T08:46:49.910Z,15.63
2019-03-23T08:49:35.004Z,16.29
2019-03-23T08:52:28.983Z,16.27
2019-03-23T08:55:22.161Z,15.60
2019-03-23T08:58:05.044Z,16.09
2019-03-23T09:06:06.265Z,16.07
2019-03-23T09:09:08.724Z,15.97
2019-03-23T09:11:41.999Z,15.99
2019-03-23T09:14:52.004Z,15.68
2019-03-23T09:17:43.151Z,15.98
2019-03-23T09:26:06.033Z,15.60
2019-03-23T09:28:57.354Z,16.61
2019-03-23T09:31:51.483Z,17.14
2019-03-23T09:34:42.601Z,17.31
2019-03-23T09:40:28.934Z,23.08
2019-03-23T09:43:21.959Z,29.45
2019-03-23T09:46:13.141Z,31.93
2019-03-23T09:49:10.183Z,34.36
2019-03-23T09:54:56.766Z,33.89
2019-03-23T09:57:31.160Z,32.65
2019-03-23T10:00:33.203Z,30.60
2019-03-23T10:03:05.797Z,35.75
2019-03-23T10:08:42.159Z,37.29
2019-03-23T10:11:46.287Z,35.75
2019-03-23T10:17:52.267Z,36.19
2019-03-23T10:20:43.411Z,36.47
2019-03-23T10:23:34.657Z,39.65
2019-03-23T10:26:36.508Z,42.69
2019-03-23T10:29:39.126Z,43.98
2019-03-23T10:32:49.201Z,43.39
2019-03-23T10:35:51.697Z,38.91
2019-03-23T10:38:43.734Z,42.22
2019-03-23T10:41:34.882Z,44.79
2019-03-23T10:44:26.085Z,39.67
2019-03-23T10:47:28.211Z,40.24
2019-03-23T10:50:19.373Z,40.33
2019-03-23T10:53:29.353Z,41.58
2019-03-23T10:56:31.197Z,41.13
2019-03-23T10:59:13.652Z,41.24
2019-03-23T11:01:47.224Z,38.19
2019-03-23T11:04:38.497Z,32.89
2019-03-23T11:07:29.709Z,28.22
2019-03-23T11:13:04.245Z,23.58
2019-03-23T11:15:55.428Z,24.02
2019-03-23T11:21:32.843Z,23.03
2019-03-23T11:24:35.166Z,23.73
2019-03-23T11:27:09.255Z,23.80
2019-03-23T11:35:33.483Z,24.83
2019-03-23T11:38:35.779Z,24.75
2019-03-23T11:43:53.736Z,25.20
2019-03-23T11:46:25.561Z,25.14
2019-03-23T11:52:01.408Z,25.24
2019-03-23T11:54:52.741Z,25.75
2019-03-23T12:00:30.248Z,26.09
2019-03-23T12:06:08.590Z,25.94
2019-03-23T12:09:10.739Z,26.18
2019-03-23T12:11:42.849Z,26.59
2019-03-23T12:14:34.098Z,27.14
2019-03-23T12:17:25.271Z,26.56
2019-03-23T12:20:16.609Z,26.73
2019-03-23T12:23:08.025Z,26.62
2019-03-23T12:25:59.283Z,26.44
2019-03-23T12:28:52.537Z,25.93
2019-03-23T12:34:27.595Z,26.79
2019-03-23T12:37:37.689Z,26.61
2019-03-23T12:43:12.560Z,26.18
2019-03-23T12:46:03.750Z,26.27
2019-03-23T12:49:05.605Z,26.53
2019-03-23T12:51:37.749Z,26.10
2019-03-23T12:54:47.746Z,25.96
2019-03-23T12:57:38.894Z,24.19
2019-03-23T13:00:30.055Z,25.61
2019-03-23T13:03:21.266Z,26.67
2019-03-23T13:06:12.499Z,26.29
2019-03-23T13:14:32.706Z,25.02
2019-03-23T13:17:36.597Z,26.02
2019-03-23T13:23:24.513Z,26.69
2019-03-23T13:25:56.776Z,27.22
2019-03-23T13:28:47.945Z,27.09
2019-03-23T13:31:39.147Z,27.69
2019-03-23T13:34:41.475Z,26.35
2019-03-23T13:37:24.533Z,26.65
2019-03-23T13:40:07.873Z,27.00
2019-03-23T13:42:51.697Z,27.42
2019-03-23T13:48:12.088Z,27.15
2019-03-23T13:53:40.749Z,27.17
2019-03-23T13:56:13.577Z,26.90
2019-03-23T13:59:04.880Z,26.42
2019-03-23T14:02:06.686Z,26.15
2019-03-23T14:07:34.859Z,25.32
2019-03-23T14:10:19.688Z,26.17
2019-03-23T14:12:53.787Z,26.40
2019-03-23T14:15:44.962Z,26.59
2019-03-23T14:24:28.675Z,26.32
2019-03-23T14:33:10.222Z,24.67
2019-03-23T14:50:35.652Z,24.95
2019-03-23T14:53:08.635Z,24.57
2019-03-23T14:56:11.259Z,24.72
2019-03-23T14:59:03.044Z,24.88
2019-03-23T15:02:07.470Z,24.84
2019-03-23T15:07:37.125Z,24.92
2019-03-23T15:10:44.842Z,24.66
2019-03-23T15:13:17.586Z,25.17
2019-03-23T15:16:18.719Z,25.45
2019-03-23T15:18:53.716Z,24.41
2019-03-23T15:27:16.080Z,24.62
2019-03-23T15:30:26.327Z,23.92
2019-03-23T15:33:19.846Z,23.97
2019-03-23T15:36:21.908Z,23.79
2019-03-23T15:42:04.507Z,23.72
2019-03-23T15:45:06.276Z,24.06
2019-03-23T15:47:40.074Z,23.58
2019-03-23T15:50:31.366Z,23.48
2019-03-23T15:53:34.108Z,23.45
2019-03-23T15:56:06.471Z,23.43
2019-03-23T15:59:09.100Z,23.38
2019-03-23T16:04:30.631Z,23.10
2019-03-23T16:07:29.310Z,23.00
2019-03-23T16:10:24.344Z,22.87
2019-03-23T16:15:59.104Z,22.88
2019-03-23T16:18:50.671Z,22.76
2019-03-23T16:21:53.406Z,22.80
2019-03-23T16:24:26.894Z,22.51
2019-03-23T16:27:18.242Z,22.46
2019-03-23T16:30:21.354Z,22.69
2019-03-23T16:32:55.762Z,22.56
2019-03-23T16:35:58.226Z,22.40
2019-03-23T16:39:03.607Z,22.18
2019-03-23T16:44:39.797Z,21.78
2019-03-23T16:47:31.219Z,21.93
2019-03-23T16:50:22.676Z,21.65
2019-03-23T16:55:57.825Z,21.73
2019-03-23T16:58:49.421Z,21.77
2019-03-23T17:01:41.026Z,21.76
2019-03-23T17:04:32.321Z,21.78
2019-03-23T17:07:42.528Z,21.64
2019-03-23T17:10:14.597Z,21.49
2019-03-23T17:13:17.069Z,21.45
2019-03-23T17:15:52.307Z,21.31
2019-03-23T17:21:28.065Z,21.28
2019-03-23T17:24:30.368Z,21.08
2019-03-23T17:27:24.052Z,21.21
2019-03-23T17:33:30.683Z,20.97
2019-03-23T17:36:17.237Z,20.86
2019-03-23T17:39:01.274Z,21.00
2019-03-23T17:44:20.554Z,20.85
2019-03-23T17:47:23.585Z,20.83
2019-03-23T17:49:58.220Z,20.91
2019-03-23T17:52:49.376Z,20.53
2019-03-23T17:55:52.135Z,19.46
2019-03-23T17:58:45.203Z,18.65
2019-03-23T18:01:47.495Z,18.43
2019-03-23T18:04:21.900Z,18.33
2019-03-23T18:07:14.355Z,18.72
2019-03-23T18:13:16.419Z,16.57
2019-03-23T18:15:58.392Z,17.41
2019-03-23T18:18:49.856Z,17.47
2019-03-23T18:21:52.104Z,17.04
2019-03-23T18:24:37.530Z,16.96
2019-03-23T18:27:11.318Z,17.00
2019-03-23T18:30:02.473Z,17.29
2019-03-23T18:32:53.815Z,17.21
2019-03-23T18:35:45.057Z,17.23
2019-03-23T18:38:46.985Z,17.17
2019-03-23T18:41:20.485Z,18.19
2019-03-23T18:47:18.045Z,17.67
2019-03-23T18:50:09.230Z,16.72
2019-03-23T18:53:00.448Z,16.51
2019-03-23T18:55:53.889Z,16.34
2019-03-23T19:01:55.632Z,17.01
2019-03-23T19:07:32.610Z,15.96
2019-03-23T19:10:35.436Z,15.73
2019-03-23T19:13:19.434Z,15.38
2019-03-23T19:15:53.418Z,15.05
2019-03-23T19:18:55.929Z,13.11
2019-03-23T19:24:32.802Z,14.73
2019-03-23T19:27:34.802Z,14.33
2019-03-23T19:36:10.289Z,15.12
2019-03-23T19:41:27.814Z,14.74
2019-03-23T19:44:19.443Z,14.31
2019-03-23T19:47:11.140Z,14.15
2019-03-23T19:50:02.294Z,14.22
2019-03-23T19:52:53.492Z,14.53
2019-03-23T19:58:47.288Z,14.24
2019-03-23T20:04:23.681Z,14.43
2019-03-23T20:09:58.672Z,15.07
2019-03-23T20:12:50.017Z,14.88
2019-03-23T20:15:41.182Z,14.25
2019-03-23T20:18:43.176Z,13.71
2019-03-23T20:21:16.726Z,14.52
2019-03-23T20:24:26.811Z,14.88
2019-03-23T20:27:28.709Z,15.06
2019-03-23T20:30:03.492Z,15.39
2019-03-23T20:32:54.698Z,14.98
2019-03-23T20:35:56.514Z,14.71
2019-03-23T20:38:48.634Z,14.59
2019-03-23T20:41:39.838Z,14.43
2019-03-23T20:44:31.001Z,14.60
2019-03-23T20:47:22.149Z,14.28
2019-03-23T20:59:10.017Z,14.54
2019-03-23T21:04:46.870Z,12.72
2019-03-23T21:08:08.502Z,12.51
2019-03-23T21:10:53.403Z,13.51
2019-03-23T21:13:45.733Z,13.93
2019-03-23T21:19:31.819Z,12.53
2019-03-23T21:22:04.952Z,12.53
2019-03-23T21:25:07.281Z,13.73
2019-03-23T21:27:41.289Z,13.56
2019-03-23T21:30:32.575Z,13.95
2019-03-23T21:36:07.205Z,13.56
2019-03-23T21:38:57.805Z,13.42
2019-03-23T21:41:49.033Z,13.36
2019-03-23T21:47:24.612Z,13.70
2019-03-23T21:53:22.895Z,13.34
2019-03-23T21:56:14.024Z,13.08
2019-03-23T21:59:15.903Z,12.63
2019-03-23T22:10:21.042Z,12.61
2019-03-23T22:13:36.068Z,12.91
2019-03-23T22:16:21.527Z,13.51
2019-03-23T22:18:54.032Z,13.65
2019-03-23T22:24:40.861Z,13.62
2019-03-23T22:30:12.369Z,14.14
2019-03-23T22:32:54.837Z,13.76
2019-03-23T22:35:47.027Z,12.90
2019-03-23T22:41:41.045Z,12.09
2019-03-23T22:44:52.730Z,12.35
2019-03-23T22:47:34.165Z,12.53
2019-03-23T22:50:36.700Z,12.90
2019-03-23T22:59:15.587Z,14.12
2019-03-23T23:04:42.387Z,13.25
2019-03-23T23:07:52.384Z,13.66
2019-03-23T23:10:54.073Z,14.02
2019-03-23T23:13:26.888Z,13.66
2019-03-23T23:16:18.215Z,13.17
2019-03-23T23:19:09.484Z,12.16
2019-03-23T23:22:00.738Z,12.12
2019-03-23T23:25:03.075Z,12.31
2019-03-23T23:27:35.549Z,13.35
2019-03-23T23:30:26.828Z,13.64
2019-03-23T23:33:18.107Z,13.27
2019-03-23T23:36:09.314Z,13.88
2019-03-23T23:39:11.750Z,14.18
2019-03-23T23:44:31.593Z,14.32
2019-03-23T23:47:22.847Z,14.44
2019-03-23T23:53:19.696Z,14.22
2019-03-23T23:56:11.137Z,14.25
